createdAt,value
2023-03-05T00:01:30.253Z,4.94
2023-03-05T00:03:57.015Z,4.92
2023-03-05T00:06:25.764Z,4.94
2023-03-05T00:08:53.304Z,4.93
2023-03-05T00:11:20.632Z,4.90
2023-03-05T00:13:47.128Z,4.91
2023-03-05T00:16:15.547Z,4.90
2023-03-05T00:18:43.394Z,4.82
2023-03-05T00:21:24.862Z,4.86
2023-03-05T00:23:53.010Z,4.88
2023-03-05T00:26:21.682Z,4.84
2023-03-05T00:28:50.002Z,4.90
2023-03-05T00:31:21.513Z,4.87
2023-03-05T00:33:56.233Z,4.88
2023-03-05T00:36:24.410Z,4.82
2023-03-05T00:38:50.974Z,4.85
2023-03-05T00:41:17.430Z,4.82
2023-03-05T00:43:45.156Z,4.82
2023-03-05T00:46:11.562Z,4.82
2023-03-05T00:48:37.927Z,4.83
2023-03-05T00:51:04.762Z,4.82
2023-03-05T00:53:31.384Z,4.83
2023-03-05T00:55:58.746Z,4.78
2023-03-05T00:58:25.106Z,4.81
2023-03-05T01:00:51.480Z,4.84
2023-03-05T01:03:18.912Z,4.85
2023-03-05T01:05:45.456Z,4.81
2023-03-05T01:08:11.838Z,4.78
2023-03-05T01:10:38.316Z,4.77
2023-03-05T01:13:04.640Z,4.76
2023-03-05T01:15:31.020Z,4.75
2023-03-05T01:17:57.343Z,4.70
2023-03-05T01:20:23.714Z,4.71
2023-03-05T01:22:50.301Z,4.73
2023-03-05T01:25:17.735Z,4.69
2023-03-05T01:27:44.253Z,4.71
2023-03-05T01:30:12.172Z,4.72
2023-03-05T01:32:38.634Z,4.70
2023-03-05T01:35:06.300Z,4.73
2023-03-05T01:37:32.715Z,4.66
2023-03-05T01:39:59.040Z,4.63
2023-03-05T01:42:25.474Z,4.72
2023-03-05T01:45:10.121Z,4.71
2023-03-05T01:47:37.440Z,4.69
2023-03-05T01:50:07.199Z,4.64
2023-03-05T01:52:36.957Z,4.59
2023-03-05T01:55:11.693Z,4.53
2023-03-05T01:57:42.139Z,4.52
2023-03-05T02:00:11.284Z,4.48
2023-03-05T02:02:37.988Z,4.39
2023-03-05T02:05:09.787Z,4.38
2023-03-05T02:07:37.892Z,4.33
2023-03-05T02:10:16.748Z,4.44
2023-03-05T02:12:43.368Z,4.40
2023-03-05T02:15:10.408Z,4.34
2023-03-05T02:17:36.758Z,4.28
2023-03-05T02:20:27.321Z,4.27
2023-03-05T02:22:53.664Z,4.25
2023-03-05T02:25:24.182Z,4.22
2023-03-05T02:27:59.679Z,4.30
2023-03-05T02:30:26.068Z,4.30
2023-03-05T02:32:52.488Z,4.42
2023-03-05T02:35:19.281Z,4.36
2023-03-05T02:37:45.817Z,4.32
2023-03-05T02:40:13.211Z,4.28
2023-03-05T02:42:40.237Z,4.26
2023-03-05T02:45:07.193Z,4.20
2023-03-05T02:47:33.693Z,4.36
2023-03-05T02:50:00.044Z,4.39
2023-03-05T02:52:27.502Z,4.49
2023-03-05T02:54:54.135Z,4.51
2023-03-05T02:57:20.593Z,4.50
2023-03-05T02:59:47.415Z,4.38
2023-03-05T03:02:14.000Z,4.32
2023-03-05T03:04:40.444Z,4.26
2023-03-05T03:07:06.800Z,4.30
2023-03-05T03:09:35.498Z,4.32
2023-03-05T03:12:03.090Z,4.32
2023-03-05T03:14:39.180Z,4.31
2023-03-05T03:17:07.446Z,4.23
2023-03-05T03:19:33.978Z,4.15
2023-03-05T03:22:00.358Z,4.16
2023-03-05T03:24:27.237Z,4.19
2023-03-05T03:26:53.552Z,4.19
2023-03-05T03:29:19.956Z,4.30
2023-03-05T03:31:46.479Z,4.21
2023-03-05T03:34:14.993Z,4.24
2023-03-05T03:36:45.820Z,4.09
2023-03-05T03:39:14.042Z,4.11
2023-03-05T03:41:52.672Z,4.08
2023-03-05T03:44:20.793Z,4.15
2023-03-05T03:46:48.775Z,4.19
2023-03-05T03:49:23.568Z,4.09
2023-03-05T03:51:51.432Z,4.03
2023-03-05T03:54:18.672Z,4.02
2023-03-05T03:56:45.603Z,4.12
2023-03-05T03:59:12.838Z,4.13
2023-03-05T04:01:39.882Z,4.11
2023-03-05T04:04:07.182Z,4.06
2023-03-05T04:06:34.122Z,4.04
2023-03-05T04:09:00.411Z,4.11
2023-03-05T04:11:26.722Z,4.09
2023-03-05T04:13:53.007Z,4.21
2023-03-05T04:16:19.477Z,4.16
2023-03-05T04:18:48.030Z,4.18
2023-03-05T04:21:14.335Z,4.17
2023-03-05T04:23:40.952Z,4.18
2023-03-05T04:26:07.280Z,4.15
2023-03-05T04:28:33.660Z,4.19
2023-03-05T04:31:00.168Z,4.20
2023-03-05T04:33:26.710Z,4.21
2023-03-05T04:35:53.077Z,4.24
2023-03-05T04:38:19.410Z,4.20
2023-03-05T04:40:46.523Z,4.15
2023-03-05T04:43:12.952Z,4.09
2023-03-05T04:45:41.226Z,4.16
2023-03-05T04:48:07.848Z,4.09
2023-03-05T04:50:34.308Z,4.00
2023-03-05T04:53:00.812Z,4.09
2023-03-05T04:55:27.593Z,4.01
2023-03-05T04:57:54.005Z,3.89
2023-03-05T05:00:20.505Z,3.88
2023-03-05T05:02:49.613Z,3.99
2023-03-05T05:05:18.938Z,3.97
2023-03-05T05:07:45.430Z,4.02
2023-03-05T05:10:12.748Z,3.98
2023-03-05T05:12:39.302Z,3.99
2023-03-05T05:15:07.251Z,3.96
2023-03-05T05:17:34.357Z,3.84
2023-03-05T05:20:01.665Z,3.79
2023-03-05T05:22:29.115Z,3.72
2023-03-05T05:24:56.217Z,3.68
2023-03-05T05:27:22.785Z,3.61
2023-03-05T05:29:52.840Z,3.63
2023-03-05T05:32:20.831Z,3.57
2023-03-05T05:34:53.099Z,3.52
2023-03-05T05:37:19.385Z,3.53
2023-03-05T05:39:49.987Z,3.53
2023-03-05T05:42:17.822Z,3.49
2023-03-05T05:44:44.256Z,3.54
2023-03-05T05:47:11.220Z,3.46
2023-03-05T05:49:37.748Z,3.43
2023-03-05T05:52:04.472Z,3.43
2023-03-05T05:54:30.826Z,3.44
2023-03-05T05:56:57.117Z,3.42
2023-03-05T05:59:23.387Z,3.41
2023-03-05T06:01:49.855Z,3.43
2023-03-05T06:04:16.320Z,3.53
2023-03-05T06:06:42.633Z,3.60
2023-03-05T06:09:11.088Z,3.50
2023-03-05T06:11:38.349Z,3.52
2023-03-05T06:14:04.728Z,3.51
2023-03-05T06:16:31.121Z,3.50
2023-03-05T06:18:57.480Z,3.48
2023-03-05T06:21:23.809Z,3.50
2023-03-05T06:23:50.803Z,3.44
2023-03-05T06:26:20.032Z,3.45
2023-03-05T06:28:46.363Z,3.48
2023-03-05T06:31:18.608Z,3.51
2023-03-05T06:33:45.310Z,3.56
2023-03-05T06:36:14.604Z,3.62
2023-03-05T06:38:41.786Z,3.64
2023-03-05T06:41:11.651Z,3.65
2023-03-05T06:43:40.713Z,3.65
2023-03-05T06:46:15.950Z,3.64
2023-03-05T06:48:43.239Z,3.67
2023-03-05T06:51:21.288Z,3.70
2023-03-05T06:53:49.466Z,3.72
2023-03-05T06:56:17.243Z,3.76
2023-03-05T06:58:46.156Z,3.79
2023-03-05T07:01:16.196Z,3.79
2023-03-05T07:03:43.024Z,3.83
2023-03-05T07:06:13.121Z,3.89
2023-03-05T07:08:39.893Z,3.95
2023-03-05T07:11:11.017Z,3.99
2023-03-05T07:13:37.446Z,4.06
2023-03-05T07:16:14.064Z,4.10
2023-03-05T07:18:40.551Z,4.12
2023-03-05T07:21:08.934Z,4.09
2023-03-05T07:23:35.964Z,4.09
2023-03-05T07:26:03.764Z,4.22
2023-03-05T07:28:30.117Z,4.25
2023-03-05T07:31:08.582Z,4.24
2023-03-05T07:33:37.042Z,4.19
2023-03-05T07:36:04.750Z,4.15
2023-03-05T07:38:32.174Z,4.16
2023-03-05T07:41:03.569Z,4.13
2023-03-05T07:43:29.942Z,4.11
2023-03-05T07:45:56.246Z,4.13
2023-03-05T07:48:22.589Z,4.13
2023-03-05T07:50:49.093Z,4.18
2023-03-05T07:53:15.733Z,4.24
2023-03-05T07:55:46.482Z,4.26
2023-03-05T07:58:14.484Z,4.29
2023-03-05T08:00:41.088Z,4.22
2023-03-05T08:03:07.663Z,4.24
2023-03-05T08:05:34.003Z,4.31
2023-03-05T08:08:00.339Z,4.28
2023-03-05T08:10:26.824Z,4.31
2023-03-05T08:12:53.592Z,4.36
2023-03-05T08:15:19.930Z,4.39
2023-03-05T08:17:46.268Z,4.39
2023-03-05T08:20:13.082Z,4.41
2023-03-05T08:22:39.567Z,4.41
2023-03-05T08:25:07.563Z,4.39
2023-03-05T08:27:34.156Z,4.40
2023-03-05T08:30:02.148Z,4.50
2023-03-05T08:32:28.649Z,4.55
2023-03-05T08:35:02.738Z,4.58
2023-03-05T08:37:29.260Z,4.60
2023-03-05T08:39:56.385Z,4.62
2023-03-05T08:42:23.659Z,4.61
2023-03-05T08:44:49.996Z,4.67
2023-03-05T08:47:18.040Z,4.74
2023-03-05T08:49:44.797Z,4.66
2023-03-05T08:52:11.094Z,4.73
2023-03-05T08:54:38.574Z,4.85
2023-03-05T08:57:08.386Z,4.90
2023-03-05T08:59:34.831Z,4.92
2023-03-05T09:02:02.296Z,4.77
2023-03-05T09:04:31.049Z,4.86
2023-03-05T09:06:57.674Z,4.86
2023-03-05T09:09:24.667Z,4.92
2023-03-05T09:11:52.144Z,4.91
2023-03-05T09:14:18.429Z,4.83
2023-03-05T09:16:44.853Z,4.72
2023-03-05T09:19:12.677Z,4.68
2023-03-05T09:21:39.082Z,4.70
2023-03-05T09:24:05.535Z,4.51
2023-03-05T09:26:31.889Z,4.64
2023-03-05T09:28:58.269Z,4.70
2023-03-05T09:31:24.908Z,4.63
2023-03-05T09:33:51.298Z,4.56
2023-03-05T09:36:26.440Z,4.53
2023-03-05T09:38:53.604Z,4.77
2023-03-05T09:41:33.942Z,4.94
2023-03-05T09:44:15.239Z,5.06
2023-03-05T09:47:14.711Z,5.18
2023-03-05T09:49:44.036Z,5.35
2023-03-05T09:52:20.358Z,5.65
2023-03-05T09:54:53.562Z,5.75
2023-03-05T09:57:25.800Z,5.84
2023-03-05T10:00:01.280Z,5.95
2023-03-05T10:02:35.234Z,5.86
2023-03-05T10:05:18.750Z,6.09
2023-03-05T10:07:54.338Z,5.96
2023-03-05T10:10:47.783Z,6.11
2023-03-05T10:13:22.968Z,5.90
2023-03-05T10:15:51.913Z,6.00
2023-03-05T10:18:30.350Z,5.90
2023-03-05T10:20:59.169Z,5.95
2023-03-05T10:23:34.476Z,5.96
2023-03-05T10:26:13.742Z,5.75
2023-03-05T10:28:46.945Z,5.59
2023-03-05T10:31:21.500Z,5.61
2023-03-05T10:34:16.135Z,5.47
2023-03-05T10:37:10.261Z,5.63
2023-03-05T10:39:45.881Z,5.64
2023-03-05T10:42:36.941Z,5.72
2023-03-05T10:45:15.877Z,5.58
2023-03-05T10:48:03.693Z,5.72
2023-03-05T10:50:40.792Z,5.61
2023-03-05T10:53:10.205Z,5.58
2023-03-05T10:55:36.526Z,5.58
2023-03-05T10:58:12.129Z,5.67
2023-03-05T11:00:38.541Z,5.81
2023-03-05T11:03:08.991Z,6.08
2023-03-05T11:05:38.364Z,6.57
2023-03-05T11:08:24.820Z,6.73
2023-03-05T11:11:16.266Z,6.34
2023-03-05T11:13:58.723Z,6.21
2023-03-05T11:16:30.642Z,6.28
2023-03-05T11:19:20.254Z,6.32
2023-03-05T11:22:07.040Z,6.40
2023-03-05T11:24:33.842Z,6.33
2023-03-05T11:27:00.506Z,6.41
2023-03-05T11:29:30.216Z,6.75
2023-03-05T11:32:15.909Z,7.13
2023-03-05T11:34:42.484Z,7.50
2023-03-05T11:37:22.470Z,7.60
2023-03-05T11:39:50.099Z,7.55
2023-03-05T11:42:25.237Z,7.56
2023-03-05T11:44:53.872Z,7.77
2023-03-05T11:47:30.237Z,8.20
2023-03-05T11:50:20.914Z,8.83
2023-03-05T11:52:54.978Z,9.19
2023-03-05T11:55:28.385Z,8.52
2023-03-05T11:58:09.601Z,8.55
2023-03-05T12:00:37.884Z,8.53
2023-03-05T12:03:12.176Z,8.63
2023-03-05T12:05:43.302Z,8.65
2023-03-05T12:08:15.232Z,8.64
2023-03-05T12:10:41.870Z,8.16
2023-03-05T12:13:28.613Z,8.33
2023-03-05T12:16:26.203Z,8.33
2023-03-05T12:18:58.560Z,8.15
2023-03-05T12:21:33.845Z,8.13
2023-03-05T12:24:28.176Z,7.86
2023-03-05T12:27:03.038Z,7.44
2023-03-05T12:30:03.917Z,7.01
2023-03-05T12:32:33.105Z,6.83
2023-03-05T12:35:22.831Z,6.87
2023-03-05T12:37:49.191Z,6.90
2023-03-05T12:40:15.510Z,7.00
2023-03-05T12:43:00.696Z,6.90
2023-03-05T12:45:29.981Z,6.95
2023-03-05T12:47:56.237Z,6.91
2023-03-05T12:50:28.540Z,6.75
2023-03-05T12:53:09.903Z,6.51
2023-03-05T12:55:48.657Z,6.65
2023-03-05T12:58:17.046Z,6.70
2023-03-05T13:00:49.476Z,6.70
2023-03-05T13:03:20.638Z,6.73
2023-03-05T13:05:56.129Z,6.93
2023-03-05T13:08:31.560Z,7.11
2023-03-05T13:11:18.680Z,7.25
2023-03-05T13:13:47.504Z,7.38
2023-03-05T13:16:38.555Z,7.45
2023-03-05T13:19:16.299Z,7.72
2023-03-05T13:21:42.597Z,7.83
2023-03-05T13:24:18.109Z,8.09
2023-03-05T13:26:44.937Z,8.24
2023-03-05T13:29:18.493Z,8.34
2023-03-05T13:31:57.267Z,8.35
2023-03-05T13:34:46.143Z,8.18
2023-03-05T13:37:17.806Z,8.14
2023-03-05T13:39:58.688Z,7.99
2023-03-05T13:42:34.356Z,7.76
2023-03-05T13:45:05.378Z,7.55
2023-03-05T13:47:36.480Z,7.26
2023-03-05T13:50:09.644Z,7.05
2023-03-05T13:52:38.157Z,7.07
2023-03-05T13:55:13.275Z,6.97
2023-03-05T13:57:42.420Z,6.94
2023-03-05T14:00:29.873Z,6.93
2023-03-05T14:03:01.190Z,7.00
2023-03-05T14:05:30.781Z,6.94
2023-03-05T14:07:57.560Z,6.94
2023-03-05T14:10:34.628Z,6.88
2023-03-05T14:13:04.903Z,6.80
2023-03-05T14:15:34.335Z,6.71
2023-03-05T14:18:12.561Z,6.83
2023-03-05T14:20:40.692Z,6.73
2023-03-05T14:23:35.666Z,6.88
2023-03-05T14:26:28.985Z,7.01
2023-03-05T14:29:00.327Z,7.09
2023-03-05T14:31:29.007Z,7.12
2023-03-05T14:34:02.194Z,7.14
2023-03-05T14:36:30.316Z,7.07
2023-03-05T14:38:57.212Z,7.03
2023-03-05T14:41:35.312Z,6.95
2023-03-05T14:44:01.947Z,6.84
2023-03-05T14:46:28.664Z,6.75
2023-03-05T14:48:55.071Z,6.56
2023-03-05T14:51:21.845Z,6.49
2023-03-05T14:53:50.959Z,6.39
2023-03-05T14:56:23.760Z,6.32
2023-03-05T14:58:50.293Z,6.28
2023-03-05T15:01:17.087Z,6.20
2023-03-05T15:03:43.990Z,6.17
2023-03-05T15:06:24.084Z,6.10
2023-03-05T15:08:52.519Z,6.05
2023-03-05T15:11:18.827Z,6.03
2023-03-05T15:13:45.365Z,5.90
2023-03-05T15:16:15.752Z,5.92
2023-03-05T15:18:42.328Z,5.95
2023-03-05T15:21:08.729Z,5.88
2023-03-05T15:23:38.018Z,5.85
2023-03-05T15:26:07.831Z,5.83
2023-03-05T15:28:38.819Z,5.81
2023-03-05T15:31:06.221Z,5.81
2023-03-05T15:33:33.637Z,5.81
2023-03-05T15:36:00.333Z,5.80
2023-03-05T15:38:29.590Z,5.74
2023-03-05T15:40:55.970Z,5.72
2023-03-05T15:43:22.312Z,5.69
2023-03-05T15:45:48.648Z,5.69
2023-03-05T15:48:16.019Z,5.65
2023-03-05T15:50:43.571Z,5.59
2023-03-05T15:53:15.472Z,5.56
2023-03-05T15:55:46.076Z,5.52
2023-03-05T15:58:16.580Z,5.54
2023-03-05T16:00:44.236Z,5.54
2023-03-05T16:03:11.080Z,5.54
2023-03-05T16:05:40.258Z,5.56
2023-03-05T16:08:07.460Z,5.58
2023-03-05T16:10:35.566Z,5.55
2023-03-05T16:13:06.640Z,5.50
2023-03-05T16:15:33.724Z,5.49
2023-03-05T16:18:04.242Z,5.51
2023-03-05T16:20:30.690Z,5.52
2023-03-05T16:22:57.041Z,5.41
2023-03-05T16:25:23.407Z,5.41
2023-03-05T16:27:49.713Z,5.37
2023-03-05T16:30:16.919Z,5.23
2023-03-05T16:32:43.675Z,5.23
2023-03-05T16:35:12.146Z,5.21
2023-03-05T16:37:40.353Z,5.09
2023-03-05T16:40:08.687Z,5.09
2023-03-05T16:42:35.067Z,5.12
2023-03-05T16:45:01.719Z,4.94
2023-03-05T16:47:28.074Z,4.93
2023-03-05T16:49:54.394Z,4.88
2023-03-05T16:52:21.130Z,4.85
2023-03-05T16:54:48.418Z,4.90
2023-03-05T16:57:14.928Z,4.83
2023-03-05T16:59:41.420Z,4.80
2023-03-05T17:02:07.865Z,4.78
2023-03-05T17:04:34.215Z,4.71
2023-03-05T17:07:00.566Z,4.64
2023-03-05T17:09:26.938Z,4.62
2023-03-05T17:11:53.957Z,4.59
2023-03-05T17:14:20.601Z,4.57
2023-03-05T17:16:47.221Z,4.56
2023-03-05T17:19:13.718Z,4.64
2023-03-05T17:21:42.271Z,4.70
2023-03-05T17:24:09.788Z,4.62
2023-03-05T17:26:36.442Z,4.59
2023-03-05T17:29:04.471Z,4.58
2023-03-05T17:31:30.958Z,4.56
2023-03-05T17:33:57.512Z,4.57
2023-03-05T17:36:24.729Z,4.54
2023-03-05T17:38:52.062Z,4.55
2023-03-05T17:41:19.422Z,4.50
2023-03-05T17:43:46.580Z,4.48
2023-03-05T17:46:13.915Z,4.48
2023-03-05T17:48:41.546Z,4.44
2023-03-05T17:51:11.270Z,4.46
2023-03-05T17:53:39.286Z,4.44
2023-03-05T17:56:09.869Z,4.40
2023-03-05T17:58:36.896Z,4.46
2023-03-05T18:01:04.420Z,4.66
2023-03-05T18:03:30.793Z,4.60
2023-03-05T18:05:57.128Z,4.51
2023-03-05T18:08:23.484Z,4.48
2023-03-05T18:10:50.279Z,4.42
2023-03-05T18:13:16.857Z,4.37
2023-03-05T18:15:47.500Z,4.36
2023-03-05T18:18:17.844Z,4.30
2023-03-05T18:20:44.792Z,4.33
2023-03-05T18:23:11.505Z,4.38
2023-03-05T18:25:37.954Z,4.51
2023-03-05T18:28:07.224Z,4.47
2023-03-05T18:30:33.944Z,4.39
2023-03-05T18:33:00.786Z,4.46
2023-03-05T18:35:29.131Z,4.32
2023-03-05T18:37:56.145Z,4.26
2023-03-05T18:40:24.635Z,4.22
2023-03-05T18:42:51.614Z,4.18
2023-03-05T18:45:19.917Z,4.14
2023-03-05T18:47:46.882Z,4.13
2023-03-05T18:50:16.633Z,4.09
2023-03-05T18:52:43.289Z,4.08
2023-03-05T18:55:18.631Z,4.06
2023-03-05T18:57:45.135Z,4.02
2023-03-05T19:00:16.626Z,4.04
2023-03-05T19:02:42.915Z,4.03
2023-03-05T19:05:10.157Z,3.99
2023-03-05T19:07:37.884Z,3.98
2023-03-05T19:10:09.809Z,3.97
2023-03-05T19:12:45.387Z,3.95
2023-03-05T19:15:13.031Z,3.94
2023-03-05T19:17:39.449Z,3.94
2023-03-05T19:20:07.788Z,3.95
2023-03-05T19:22:34.706Z,3.94
2023-03-05T19:25:01.649Z,3.95
2023-03-05T19:27:28.084Z,3.91
2023-03-05T19:29:54.599Z,3.89
2023-03-05T19:32:24.689Z,3.90
2023-03-05T19:34:55.569Z,3.87
2023-03-05T19:37:22.238Z,3.90
2023-03-05T19:39:48.812Z,3.87
2023-03-05T19:42:15.414Z,3.85
2023-03-05T19:44:42.120Z,3.86
2023-03-05T19:47:08.470Z,3.89
2023-03-05T19:49:35.770Z,3.88
2023-03-05T19:52:02.082Z,3.85
2023-03-05T19:54:28.517Z,3.83
2023-03-05T19:56:55.748Z,3.83
2023-03-05T19:59:22.986Z,3.81
2023-03-05T20:01:49.531Z,3.80
2023-03-05T20:04:19.950Z,3.79
2023-03-05T20:06:46.590Z,3.80
2023-03-05T20:09:14.103Z,3.78
2023-03-05T20:11:40.888Z,3.76
2023-03-05T20:14:07.904Z,3.75
2023-03-05T20:16:37.485Z,3.75
2023-03-05T20:19:06.569Z,3.73
2023-03-05T20:21:36.300Z,3.72
2023-03-05T20:24:06.900Z,3.71
2023-03-05T20:26:36.988Z,3.74
2023-03-05T20:29:04.746Z,3.71
2023-03-05T20:31:33.849Z,3.72
2023-03-05T20:34:00.292Z,3.70
2023-03-05T20:36:26.585Z,3.70
2023-03-05T20:38:52.930Z,3.82
2023-03-05T20:41:23.178Z,3.81
2023-03-05T20:43:51.008Z,3.81
2023-03-05T20:46:32.734Z,3.89
2023-03-05T20:49:01.001Z,3.96
2023-03-05T20:51:36.118Z,3.92
2023-03-05T20:54:05.709Z,3.82
2023-03-05T20:56:33.790Z,3.75
2023-03-05T20:59:03.688Z,3.72
2023-03-05T21:01:32.057Z,3.67
2023-03-05T21:03:58.629Z,3.63
2023-03-05T21:06:27.030Z,3.60
2023-03-05T21:08:53.967Z,3.62
2023-03-05T21:11:20.510Z,3.66
2023-03-05T21:13:47.142Z,3.65
2023-03-05T21:16:17.236Z,3.77
2023-03-05T21:18:43.846Z,3.73
2023-03-05T21:21:10.271Z,3.69
2023-03-05T21:23:36.850Z,3.71
2023-03-05T21:26:04.115Z,3.65
2023-03-05T21:28:31.693Z,3.60
2023-03-05T21:30:58.050Z,3.56
2023-03-05T21:33:28.052Z,3.54
2023-03-05T21:35:56.854Z,3.52
2023-03-05T21:38:24.697Z,3.48
2023-03-05T21:40:53.599Z,3.47
2023-03-05T21:43:22.607Z,3.47
2023-03-05T21:45:50.881Z,3.46
2023-03-05T21:48:17.282Z,3.45
2023-03-05T21:50:45.333Z,3.46
2023-03-05T21:53:12.784Z,3.52
2023-03-05T21:55:54.965Z,3.70
2023-03-05T21:58:21.262Z,3.67
2023-03-05T22:00:50.045Z,3.75
2023-03-05T22:03:16.458Z,3.66
2023-03-05T22:05:43.846Z,3.58
2023-03-05T22:08:10.171Z,3.58
2023-03-05T22:10:36.586Z,3.53
2023-03-05T22:13:09.918Z,3.51
2023-03-05T22:15:50.976Z,3.49
2023-03-05T22:18:19.358Z,3.50
2023-03-05T22:20:46.341Z,3.50
2023-03-05T22:23:13.445Z,3.45
2023-03-05T22:25:40.837Z,3.40
2023-03-05T22:28:09.176Z,3.44
2023-03-05T22:30:35.892Z,3.42
2023-03-05T22:33:02.605Z,3.42
2023-03-05T22:35:29.722Z,3.41
2023-03-05T22:37:56.134Z,3.42
2023-03-05T22:40:22.673Z,3.40
2023-03-05T22:42:49.057Z,3.40
2023-03-05T22:45:17.697Z,3.41
2023-03-05T22:47:47.523Z,3.39
2023-03-05T22:50:14.699Z,3.38
2023-03-05T22:52:41.071Z,3.36
2023-03-05T22:55:07.785Z,3.39
2023-03-05T22:57:34.106Z,3.39
2023-03-05T23:00:00.412Z,3.55
2023-03-05T23:02:26.808Z,3.62
2023-03-05T23:04:54.853Z,3.59
2023-03-05T23:07:26.743Z,3.53
2023-03-05T23:10:21.166Z,3.52
2023-03-05T23:12:50.425Z,3.47
2023-03-05T23:15:19.810Z,3.43
2023-03-05T23:17:46.182Z,3.52
2023-03-05T23:20:16.518Z,3.53
2023-03-05T23:22:44.676Z,3.52
2023-03-05T23:25:12.990Z,3.50
2023-03-05T23:27:39.742Z,3.45
2023-03-05T23:30:19.477Z,3.44
2023-03-05T23:32:52.556Z,3.40
2023-03-05T23:35:23.558Z,3.40
2023-03-05T23:37:50.678Z,3.42
2023-03-05T23:40:25.765Z,3.55
2023-03-05T23:42:52.540Z,3.55
2023-03-05T23:45:20.158Z,3.58
2023-03-05T23:47:48.253Z,3.55
2023-03-05T23:50:20.871Z,3.42
2023-03-05T23:52:48.115Z,3.41
2023-03-05T23:55:21.146Z,3.44
2023-03-05T23:57:47.709Z,3.43
